createdAt,value
2018-05-16T00:00:38.323Z,97055.39
2018-05-16T00:03:05.846Z,97062.12
2018-05-16T00:05:33.390Z,97052.81
2018-05-16T00:08:00.894Z,97052.43
2018-05-16T00:10:28.397Z,97056.59
2018-05-16T00:12:55.929Z,97054.48
2018-05-16T00:15:23.446Z,97044.91
2018-05-16T00:17:50.988Z,97054.59
2018-05-16T00:20:18.630Z,97049.27
2018-05-16T00:22:46.142Z,97049.27
2018-05-16T00:25:13.686Z,97046.66
2018-05-16T00:27:41.206Z,97052.37
2018-05-16T00:30:08.807Z,97045.52
2018-05-16T00:32:36.318Z,97052.95
2018-05-16T00:35:03.841Z,97047.20
2018-05-16T00:37:31.437Z,97044.53
2018-05-16T00:39:58.962Z,97045.27
2018-05-16T00:42:26.490Z,97050.65
2018-05-16T00:44:54.055Z,97050.00
2018-05-16T00:47:21.574Z,97049.34
2018-05-16T00:49:49.068Z,97054.20
2018-05-16T00:52:17.495Z,97055.33
2018-05-16T00:54:44.999Z,97058.25
2018-05-16T00:57:12.562Z,97056.71
2018-05-16T00:59:40.122Z,97052.70
2018-05-16T01:02:07.666Z,97057.20
2018-05-16T01:04:35.191Z,97055.30
2018-05-16T01:07:02.729Z,97058.80
2018-05-16T01:09:30.257Z,97060.61
2018-05-16T01:11:57.868Z,97054.84
2018-05-16T01:14:25.441Z,97052.36
2018-05-16T01:16:53.249Z,97055.84
2018-05-16T01:19:21.028Z,97051.72
2018-05-16T01:21:48.862Z,97048.39
2018-05-16T01:24:16.414Z,97043.87
2018-05-16T01:26:43.957Z,97044.34
2018-05-16T01:29:11.533Z,97044.41
2018-05-16T01:31:39.365Z,97039.75
2018-05-16T01:34:06.949Z,97042.71
2018-05-16T01:36:34.489Z,97045.23
2018-05-16T01:39:02.023Z,97047.33
2018-05-16T01:41:29.612Z,97043.91
2018-05-16T01:43:57.174Z,97043.53
2018-05-16T01:46:24.678Z,97048.94
2018-05-16T01:49:03.977Z,97048.91
2018-05-16T01:51:31.490Z,97046.48
2018-05-16T01:53:58.990Z,97036.33
2018-05-16T01:56:26.501Z,97043.97
2018-05-16T01:58:53.994Z,97051.52
2018-05-16T02:01:21.529Z,97043.63
2018-05-16T02:03:49.053Z,97045.34
2018-05-16T02:06:16.566Z,97046.14
2018-05-16T02:08:44.066Z,97043.55
2018-05-16T02:11:11.619Z,97042.80
2018-05-16T02:13:39.166Z,97046.58
2018-05-16T02:16:06.689Z,97047.48
2018-05-16T02:18:34.269Z,97051.70
2018-05-16T02:21:01.803Z,97050.38
2018-05-16T02:23:29.318Z,97054.57
2018-05-16T02:25:56.857Z,97058.84
2018-05-16T02:28:24.462Z,97052.98
2018-05-16T02:30:52.002Z,97049.56
2018-05-16T02:33:19.558Z,97050.00
2018-05-16T02:35:47.117Z,97043.64
2018-05-16T02:38:14.618Z,97051.37
2018-05-16T02:40:42.141Z,97049.80
2018-05-16T02:43:09.662Z,97028.72
2018-05-16T02:45:37.173Z,97047.95
2018-05-16T02:48:04.718Z,97044.72
2018-05-16T02:50:32.219Z,97042.25
2018-05-16T02:52:59.781Z,97043.61
2018-05-16T02:55:27.309Z,97041.93
2018-05-16T02:57:54.811Z,97042.08
2018-05-16T03:00:22.391Z,97042.78
2018-05-16T03:02:49.914Z,97040.20
2018-05-16T03:05:17.457Z,97037.34
2018-05-16T03:07:44.966Z,97042.78
2018-05-16T03:10:12.524Z,97039.86
2018-05-16T03:12:40.043Z,97042.88
2018-05-16T03:15:07.543Z,97047.05
2018-05-16T03:17:35.147Z,97045.95
2018-05-16T03:20:02.672Z,97043.45
2018-05-16T03:22:30.175Z,97042.64
2018-05-16T03:24:57.754Z,97043.52
2018-05-16T03:27:25.252Z,97044.42
2018-05-16T03:29:52.773Z,97041.88
2018-05-16T03:32:21.312Z,97039.39
2018-05-16T03:34:48.825Z,97039.45
2018-05-16T03:37:16.313Z,97043.81
2018-05-16T03:39:43.864Z,97040.97
2018-05-16T03:42:11.382Z,97037.28
2018-05-16T03:44:38.907Z,97038.10
2018-05-16T03:47:06.446Z,97042.26
2018-05-16T03:49:33.953Z,97040.18
2018-05-16T03:52:01.549Z,97036.02
2018-05-16T03:54:29.021Z,97037.28
2018-05-16T03:56:56.563Z,97041.09
2018-05-16T03:59:35.965Z,97044.40
2018-05-16T04:02:15.325Z,97046.59
2018-05-16T04:04:42.914Z,97045.39
2018-05-16T04:07:10.421Z,97041.27
2018-05-16T04:09:37.960Z,97047.09
2018-05-16T04:12:05.514Z,97037.11
2018-05-16T04:14:33.034Z,97042.17
2018-05-16T04:17:00.631Z,97042.26
2018-05-16T04:19:28.166Z,97040.80
2018-05-16T04:21:55.673Z,97046.48
2018-05-16T04:24:23.211Z,97043.95
2018-05-16T04:26:50.745Z,97045.54
2018-05-16T04:29:18.298Z,97039.36
2018-05-16T04:31:45.862Z,97045.22
2018-05-16T04:34:13.416Z,97043.96
2018-05-16T04:36:40.955Z,97047.70
2018-05-16T04:39:08.498Z,97045.63
2018-05-16T04:41:36.038Z,97048.88
2018-05-16T04:44:03.563Z,97045.57
2018-05-16T04:46:31.077Z,97049.27
2018-05-16T04:48:58.632Z,97055.62
2018-05-16T04:51:26.156Z,97052.95
2018-05-16T04:53:53.705Z,97056.17
2018-05-16T04:56:21.278Z,97053.47
2018-05-16T04:58:48.789Z,97056.17
2018-05-16T05:01:16.338Z,97056.84
2018-05-16T05:03:43.911Z,97063.78
2018-05-16T05:06:11.447Z,97056.95
2018-05-16T05:08:38.966Z,97061.08
2018-05-16T05:11:06.514Z,97060.08
2018-05-16T05:13:34.028Z,97066.26
2018-05-16T05:16:01.548Z,97058.69
2018-05-16T05:18:29.181Z,97065.27
2018-05-16T05:20:56.625Z,97061.89
2018-05-16T05:23:24.143Z,97058.32
2018-05-16T05:25:51.702Z,97060.38
2018-05-16T05:28:19.214Z,97053.38
2018-05-16T05:30:46.760Z,97061.41
2018-05-16T05:33:14.356Z,97032.53
2018-05-16T05:35:41.989Z,97058.72
2018-05-16T05:38:09.506Z,97057.00
2018-05-16T05:40:37.059Z,97054.81
2018-05-16T05:43:04.604Z,97054.75
2018-05-16T05:45:32.126Z,97057.32
2018-05-16T05:47:59.697Z,97051.30
2018-05-16T05:50:27.213Z,97056.20
2018-05-16T05:52:54.770Z,97049.70
2018-05-16T05:55:22.339Z,97052.48
2018-05-16T05:57:49.832Z,97054.40
2018-05-16T06:00:17.358Z,97058.84
2018-05-16T06:02:44.985Z,97057.02
2018-05-16T06:05:12.561Z,96980.19
2018-05-16T06:07:40.146Z,97055.95
2018-05-16T06:10:07.757Z,97056.37
2018-05-16T06:12:35.279Z,97056.23
2018-05-16T06:15:02.842Z,97056.08
2018-05-16T06:17:30.395Z,97057.31
2018-05-16T06:19:57.901Z,97059.64
2018-05-16T06:22:25.441Z,97050.59
2018-05-16T06:24:53.016Z,97055.73
2018-05-16T06:27:20.624Z,97052.05
2018-05-16T06:29:48.092Z,97048.80
2018-05-16T06:32:15.660Z,97050.14
2018-05-16T06:34:43.203Z,97054.41
2018-05-16T06:37:10.782Z,97057.17
2018-05-16T06:39:38.354Z,97052.45
2018-05-16T06:42:05.880Z,97052.97
2018-05-16T06:44:33.451Z,97049.25
2018-05-16T06:47:01.010Z,97051.84
2018-05-16T06:49:28.519Z,97055.14
2018-05-16T06:51:56.009Z,97055.73
2018-05-16T06:54:23.554Z,97059.87
2018-05-16T06:56:51.073Z,97061.73
2018-05-16T06:59:18.564Z,97066.66
2018-05-16T07:01:46.176Z,97065.89
2018-05-16T07:04:13.633Z,97063.83
2018-05-16T07:06:41.124Z,97066.48
2018-05-16T07:09:08.644Z,97063.98
2018-05-16T07:11:36.153Z,97069.77
2018-05-16T07:14:03.654Z,97069.95
2018-05-16T07:16:31.193Z,97071.74
2018-05-16T07:18:58.709Z,97077.55
2018-05-16T07:21:26.208Z,97059.09
2018-05-16T07:23:53.717Z,97080.56
2018-05-16T07:26:21.201Z,97077.36
2018-05-16T07:28:48.711Z,97087.38
2018-05-16T07:31:16.273Z,97077.58
2018-05-16T07:33:43.818Z,97075.20
2018-05-16T07:36:12.116Z,97074.72
2018-05-16T07:38:39.656Z,97072.31
2018-05-16T07:41:07.312Z,97074.32
2018-05-16T07:43:34.709Z,97073.05
2018-05-16T07:46:02.222Z,97071.58
2018-05-16T07:48:29.701Z,97083.52
2018-05-16T07:50:57.189Z,97081.74
2018-05-16T07:53:24.698Z,97083.33
2018-05-16T07:55:52.211Z,97083.62
2018-05-16T07:58:19.705Z,97070.62
2018-05-16T08:00:47.213Z,97085.61
2018-05-16T08:03:14.705Z,97084.95
2018-05-16T08:05:42.190Z,97083.92
2018-05-16T08:08:09.697Z,97082.00
2018-05-16T08:10:37.186Z,97083.98
2018-05-16T08:13:04.673Z,97088.48
2018-05-16T08:15:32.181Z,97080.63
2018-05-16T08:17:59.675Z,97084.14
2018-05-16T08:20:27.170Z,97083.31
2018-05-16T08:22:54.687Z,97088.08
2018-05-16T08:25:22.181Z,97093.59
2018-05-16T08:27:49.673Z,97096.13
2018-05-16T08:30:17.191Z,97091.14
2018-05-16T08:32:44.689Z,97086.70
2018-05-16T08:35:12.173Z,97089.97
2018-05-16T08:37:39.690Z,97093.11
2018-05-16T08:40:07.182Z,97095.93
2018-05-16T08:42:34.678Z,97095.84
2018-05-16T08:45:02.232Z,97096.76
2018-05-16T08:47:29.705Z,97098.55
2018-05-16T08:49:57.848Z,97103.41
2018-05-16T08:52:25.369Z,97099.48
2018-05-16T08:54:52.863Z,97099.47
2018-05-16T08:57:20.414Z,97095.89
2018-05-16T08:59:47.931Z,97102.39
2018-05-16T09:02:15.459Z,97108.72
2018-05-16T09:04:43.020Z,97106.89
2018-05-16T09:07:10.541Z,97108.86
2018-05-16T09:09:38.034Z,97110.03
2018-05-16T09:12:05.527Z,97103.63
2018-05-16T09:14:33.042Z,97107.02
2018-05-16T09:17:00.530Z,97108.41
2018-05-16T09:19:28.019Z,97093.97
2018-05-16T09:21:55.546Z,97112.91
2018-05-16T09:24:23.038Z,97111.17
2018-05-16T09:26:50.534Z,97108.30
2018-05-16T09:29:18.051Z,97105.84
2018-05-16T09:31:45.552Z,97107.55
2018-05-16T09:34:13.037Z,97113.28
2018-05-16T09:36:40.553Z,97109.83
2018-05-16T09:39:08.046Z,97131.51
2018-05-16T09:41:35.532Z,97097.60
2018-05-16T09:44:03.049Z,97107.60
2018-05-16T09:46:30.534Z,97110.07
2018-05-16T09:48:58.039Z,97108.80
2018-05-16T09:51:25.566Z,97105.73
2018-05-16T09:53:53.075Z,97107.39
2018-05-16T09:56:22.305Z,97115.83
2018-05-16T09:58:49.814Z,97113.81
2018-05-16T10:01:17.314Z,97121.17
2018-05-16T10:03:44.815Z,97124.67
2018-05-16T10:06:12.338Z,97124.93
2018-05-16T10:08:39.829Z,97125.59
2018-05-16T10:11:07.323Z,97122.14
2018-05-16T10:13:34.850Z,97128.45
2018-05-16T10:16:02.374Z,97122.45
2018-05-16T10:18:29.859Z,97135.13
2018-05-16T10:20:57.379Z,97127.06
2018-05-16T10:23:24.865Z,97125.34
2018-05-16T10:25:52.349Z,97142.20
2018-05-16T10:28:19.866Z,97131.12
2018-05-16T10:30:47.358Z,97138.11
2018-05-16T10:33:14.859Z,97143.44
2018-05-16T10:35:42.382Z,97143.76
2018-05-16T10:38:09.866Z,97148.00
2018-05-16T10:40:37.363Z,97148.73
2018-05-16T10:43:04.878Z,97147.05
2018-05-16T10:45:32.374Z,97140.16
2018-05-16T10:47:59.867Z,97129.10
2018-05-16T10:50:27.439Z,97132.89
2018-05-16T10:52:54.901Z,97130.20
2018-05-16T10:55:22.403Z,97130.02
2018-05-16T10:57:49.926Z,97128.75
2018-05-16T11:00:17.408Z,97125.34
2018-05-16T11:02:44.912Z,97127.64
2018-05-16T11:05:12.426Z,97130.32
2018-05-16T11:07:39.935Z,97126.48
2018-05-16T11:10:07.421Z,97048.37
2018-05-16T11:12:35.972Z,97111.86
2018-05-16T11:15:03.457Z,97120.22
2018-05-16T11:17:30.957Z,97116.16
2018-05-16T11:19:58.483Z,97133.16
2018-05-16T11:22:26.006Z,97119.06
2018-05-16T11:24:53.504Z,97118.58
2018-05-16T11:27:21.013Z,97112.39
2018-05-16T11:29:48.523Z,97102.61
2018-05-16T11:32:16.077Z,97105.57
2018-05-16T11:34:43.590Z,97109.76
2018-05-16T11:37:11.088Z,97115.28
2018-05-16T11:39:38.595Z,97111.27
2018-05-16T11:42:06.110Z,97116.69
2018-05-16T11:44:33.602Z,97111.62
2018-05-16T11:47:01.089Z,97112.55
2018-05-16T11:49:28.693Z,97112.71
2018-05-16T11:51:56.161Z,97116.52
2018-05-16T11:54:23.654Z,97115.48
2018-05-16T11:56:51.168Z,97112.05
2018-05-16T11:59:18.680Z,97110.25
2018-05-16T12:01:46.171Z,97098.02
2018-05-16T12:04:13.682Z,97100.71
2018-05-16T12:06:41.165Z,97100.70
2018-05-16T12:09:08.753Z,97090.69
2018-05-16T12:11:37.145Z,97092.36
2018-05-16T12:14:04.633Z,97094.66
2018-05-16T12:16:32.179Z,97091.20
2018-05-16T12:18:59.702Z,97095.65
2018-05-16T12:21:27.188Z,97090.25
2018-05-16T12:23:54.674Z,97086.05
2018-05-16T12:26:22.230Z,97083.58
2018-05-16T12:28:49.773Z,97078.85
2018-05-16T12:31:17.273Z,97083.63
2018-05-16T12:33:44.814Z,97072.29
2018-05-16T12:36:12.297Z,97052.73
2018-05-16T12:38:39.797Z,97056.20
2018-05-16T12:41:07.320Z,97070.45
2018-05-16T12:43:34.805Z,97081.51
2018-05-16T12:46:02.293Z,97084.39
2018-05-16T12:48:29.803Z,97081.95
2018-05-16T12:50:57.301Z,97079.92
2018-05-16T12:53:24.822Z,97072.03
2018-05-16T12:55:52.346Z,97083.47
2018-05-16T12:58:19.843Z,97095.36
2018-05-16T13:00:47.330Z,97099.23
2018-05-16T13:03:14.846Z,97101.90
2018-05-16T13:05:42.333Z,97103.54
2018-05-16T13:08:09.821Z,97112.31
2018-05-16T13:10:37.337Z,97129.13
2018-05-16T13:13:04.933Z,97159.77
2018-05-16T13:15:32.345Z,97182.42
2018-05-16T13:17:59.872Z,97191.75
2018-05-16T13:20:27.376Z,97207.03
2018-05-16T13:22:54.874Z,97212.31
2018-05-16T13:25:22.391Z,97215.22
2018-05-16T13:27:49.877Z,97225.40
2018-05-16T13:30:17.371Z,97233.08
2018-05-16T13:32:44.876Z,97221.42
2018-05-16T13:35:12.367Z,97230.68
2018-05-16T13:37:39.859Z,97227.01
2018-05-16T13:40:07.381Z,97226.05
2018-05-16T13:42:34.926Z,97224.63
2018-05-16T13:45:02.435Z,97218.23
2018-05-16T13:47:30.033Z,97209.06
2018-05-16T13:49:57.520Z,97206.28
2018-05-16T13:52:25.012Z,97215.92
2018-05-16T13:54:52.537Z,97211.82
2018-05-16T13:57:20.029Z,97210.41
2018-05-16T13:59:47.518Z,97207.42
2018-05-16T14:02:15.062Z,97206.87
2018-05-16T14:04:42.552Z,97211.44
2018-05-16T14:07:10.047Z,97216.59
2018-05-16T14:09:37.557Z,97218.45
2018-05-16T14:12:05.055Z,97219.13
2018-05-16T14:14:32.558Z,97217.34
2018-05-16T14:17:00.077Z,97214.95
2018-05-16T14:19:27.578Z,97212.53
2018-05-16T14:21:55.065Z,97213.41
2018-05-16T14:24:22.614Z,97209.04
2018-05-16T14:26:50.105Z,97208.70
2018-05-16T14:29:17.597Z,97204.14
2018-05-16T14:31:45.111Z,97207.88
2018-05-16T14:34:12.605Z,97210.02
2018-05-16T14:36:40.106Z,97212.76
2018-05-16T14:39:07.616Z,97215.11
2018-05-16T14:41:36.046Z,97211.16
2018-05-16T14:44:03.541Z,97215.44
2018-05-16T14:46:31.053Z,97224.70
2018-05-16T14:48:58.551Z,97216.59
2018-05-16T14:51:26.054Z,97219.31
2018-05-16T14:53:54.514Z,97222.16
2018-05-16T14:56:22.030Z,97224.13
2018-05-16T14:58:49.525Z,97219.98
2018-05-16T15:01:17.044Z,97212.93
2018-05-16T15:03:44.541Z,97211.30
2018-05-16T15:06:12.044Z,97207.64
2018-05-16T15:08:39.572Z,97202.57
2018-05-16T15:11:07.091Z,97206.09
2018-05-16T15:13:34.586Z,97201.68
2018-05-16T15:16:02.210Z,97200.11
2018-05-16T15:18:29.714Z,97204.88
2018-05-16T15:20:57.219Z,97202.83
2018-05-16T15:23:24.881Z,97203.14
2018-05-16T15:25:52.416Z,97202.25
2018-05-16T15:28:19.910Z,97206.80
2018-05-16T15:30:47.424Z,97203.06
2018-05-16T15:33:14.909Z,97203.64
2018-05-16T15:35:42.397Z,97202.98
2018-05-16T15:38:09.921Z,97206.47
2018-05-16T15:40:37.419Z,97207.34
2018-05-16T15:43:04.927Z,97206.08
2018-05-16T15:45:32.462Z,97194.12
2018-05-16T15:47:59.968Z,97195.89
2018-05-16T15:50:27.489Z,97188.06
2018-05-16T15:52:55.013Z,97190.63
2018-05-16T15:55:22.510Z,97181.52
2018-05-16T15:57:50.005Z,97181.41
2018-05-16T16:00:17.546Z,97184.05
2018-05-16T16:02:45.038Z,97184.30
2018-05-16T16:05:12.535Z,97181.28
2018-05-16T16:07:40.058Z,97189.42
2018-05-16T16:10:07.557Z,97180.20
2018-05-16T16:12:35.058Z,97189.78
2018-05-16T16:15:02.604Z,97184.41
2018-05-16T16:17:30.113Z,97188.72
2018-05-16T16:19:57.626Z,97184.64
2018-05-16T16:22:25.154Z,97191.57
2018-05-16T16:24:52.652Z,97186.92
2018-05-16T16:27:20.155Z,97184.08
2018-05-16T16:29:47.679Z,97186.47
2018-05-16T16:32:15.180Z,97190.04
2018-05-16T16:34:42.686Z,97196.06
2018-05-16T16:37:10.204Z,97205.38
2018-05-16T16:39:37.697Z,97203.35
2018-05-16T16:42:05.193Z,97199.25
2018-05-16T16:44:32.714Z,97199.34
2018-05-16T16:47:00.206Z,97191.27
2018-05-16T16:49:27.702Z,97195.64
2018-05-16T16:51:55.222Z,97202.95
2018-05-16T16:54:22.751Z,97205.28
2018-05-16T17:02:51.580Z,97218.52
2018-05-16T17:08:00.548Z,97220.09
2018-05-16T17:10:28.110Z,97218.03
2018-05-16T17:12:55.649Z,97213.77
2018-05-16T17:15:23.253Z,97218.83
2018-05-16T17:17:57.109Z,97217.42
2018-05-16T17:20:29.481Z,97224.29
2018-05-16T17:29:27.756Z,97212.31
2018-05-16T17:31:59.843Z,97209.52
2018-05-16T17:34:37.400Z,97209.95
2018-05-16T17:37:05.118Z,97216.80
2018-05-16T17:39:32.679Z,97216.00
2018-05-16T17:42:02.481Z,97220.94
2018-05-16T17:44:30.018Z,97230.16
2018-05-16T17:47:04.389Z,97234.84
2018-05-16T17:52:26.342Z,97242.64
2018-05-16T17:54:54.473Z,97244.09
2018-05-16T17:57:21.986Z,97247.82
2018-05-16T17:59:49.502Z,97243.13
2018-05-16T18:02:17.261Z,97236.76
2018-05-16T18:04:45.146Z,97244.66
2018-05-16T18:07:12.961Z,97247.94
2018-05-16T18:09:40.789Z,97253.80
2018-05-16T18:12:08.909Z,97256.87
2018-05-16T18:17:38.689Z,97256.56
2018-05-16T18:20:06.207Z,97262.14
2018-05-16T18:22:33.702Z,97261.91
2018-05-16T18:25:01.194Z,97264.66
2018-05-16T18:27:28.731Z,97265.66
2018-05-16T18:29:56.220Z,97269.53
2018-05-16T18:32:23.714Z,97267.36
2018-05-16T18:34:51.229Z,97270.17
2018-05-16T18:37:18.725Z,97264.52
2018-05-16T18:39:46.226Z,97263.36
2018-05-16T18:42:13.745Z,97269.49
2018-05-16T18:44:41.265Z,97271.78
2018-05-16T18:47:08.764Z,97275.02
2018-05-16T18:49:36.277Z,97276.83
2018-05-16T18:52:03.769Z,97271.59
2018-05-16T18:54:31.270Z,97277.09
2018-05-16T18:56:58.806Z,97270.59
2018-05-16T18:59:26.306Z,97278.25
2018-05-16T19:01:53.829Z,97272.78
2018-05-16T19:04:21.363Z,97274.92
2018-05-16T19:06:48.848Z,97279.09
2018-05-16T19:09:16.344Z,97283.29
2018-05-16T19:11:43.861Z,97276.10
2018-05-16T19:14:11.358Z,97285.55
2018-05-16T19:16:38.875Z,97288.36
2018-05-16T19:19:06.397Z,97284.87
2018-05-16T19:21:33.899Z,97286.10
2018-05-16T19:24:01.401Z,97274.80
2018-05-16T19:26:28.922Z,97286.80
2018-05-16T19:28:56.418Z,97288.72
2018-05-16T19:31:23.977Z,97293.18
2018-05-16T19:33:51.506Z,97301.03
2018-05-16T19:36:19.002Z,97298.71
2018-05-16T19:38:46.507Z,97303.02
2018-05-16T19:41:14.017Z,97309.98
2018-05-16T19:43:41.502Z,97307.25
2018-05-16T19:46:09.088Z,97308.80
2018-05-16T19:48:36.538Z,97307.80
2018-05-16T19:51:04.038Z,97297.78
2018-05-16T19:53:31.597Z,97296.28
2018-05-16T19:55:59.257Z,97296.60
2018-05-16T19:58:26.864Z,97299.88
2018-05-16T20:00:56.244Z,97294.34
2018-05-16T20:03:23.884Z,97297.08
2018-05-16T20:05:51.357Z,97294.70
2018-05-16T20:08:18.871Z,97288.47
2018-05-16T20:10:47.383Z,97289.86
2018-05-16T20:13:14.909Z,97288.47
2018-05-16T20:15:42.414Z,97292.16
2018-05-16T20:18:10.437Z,97295.50
2018-05-16T20:20:39.184Z,97300.59
2018-05-16T20:23:06.702Z,97303.52
2018-05-16T20:25:34.376Z,97307.40
2018-05-16T20:28:01.917Z,97310.27
2018-05-16T20:30:29.492Z,97304.69
2018-05-16T20:32:57.036Z,97307.56
2018-05-16T20:35:25.031Z,97311.59
2018-05-16T20:37:52.565Z,97316.50
2018-05-16T20:40:20.122Z,97316.59
2018-05-16T20:42:47.638Z,97315.75
2018-05-16T20:45:15.244Z,97317.80
2018-05-16T20:47:42.746Z,97320.69
2018-05-16T20:50:10.314Z,97316.91
2018-05-16T20:52:37.862Z,97317.00
2018-05-16T20:55:05.411Z,97318.36
2018-05-16T20:57:33.001Z,97314.30
2018-05-16T21:00:00.734Z,97301.14
2018-05-16T21:02:28.313Z,97307.74
2018-05-16T21:04:55.837Z,97303.50
2018-05-16T21:07:23.650Z,97307.72
2018-05-16T21:09:52.189Z,97308.19
2018-05-16T21:12:20.480Z,97308.91
2018-05-16T21:14:48.028Z,97308.88
2018-05-16T21:17:15.587Z,97306.27
2018-05-16T21:19:43.101Z,97311.56
2018-05-16T21:22:10.628Z,97315.18
2018-05-16T21:24:38.207Z,97310.86
2018-05-16T21:27:05.731Z,97313.58
2018-05-16T21:29:33.253Z,97307.62
2018-05-16T21:32:00.853Z,97310.08
2018-05-16T21:34:28.394Z,97318.02
2018-05-16T21:36:55.913Z,97316.31
2018-05-16T21:39:23.463Z,97310.02
2018-05-16T21:41:50.991Z,97312.38
2018-05-16T21:44:18.527Z,97318.02
2018-05-16T21:46:46.178Z,97317.32
2018-05-16T21:49:13.700Z,97324.09
2018-05-16T21:51:42.027Z,97327.68
2018-05-16T21:54:09.668Z,97335.39
2018-05-16T21:56:38.161Z,97336.69
2018-05-16T21:59:05.691Z,97337.12
2018-05-16T22:01:33.230Z,97345.16
2018-05-16T22:04:00.774Z,97351.80
2018-05-16T22:06:28.290Z,97352.34
2018-05-16T22:08:55.842Z,97351.11
2018-05-16T22:11:23.341Z,97354.67
2018-05-16T22:13:50.871Z,97357.22
2018-05-16T22:16:18.421Z,97358.67
2018-05-16T22:18:45.947Z,97362.10
2018-05-16T22:21:13.506Z,97363.33
2018-05-16T22:23:41.042Z,97363.27
2018-05-16T22:26:08.601Z,97363.96
2018-05-16T22:28:36.160Z,97367.98
2018-05-16T22:31:09.303Z,97365.94
2018-05-16T22:33:42.256Z,97364.34
2018-05-16T22:36:15.505Z,97357.38
2018-05-16T22:38:48.770Z,97348.81
2018-05-16T22:41:21.803Z,97349.18
2018-05-16T22:46:51.232Z,97361.11
2018-05-16T22:49:18.762Z,97359.23
2018-05-16T22:51:46.270Z,97349.50
2018-05-16T22:54:13.818Z,97344.84
2018-05-16T22:56:41.342Z,97344.39
2018-05-16T22:59:08.864Z,97340.05
2018-05-16T23:01:36.421Z,97337.18
2018-05-16T23:04:03.932Z,97337.52
2018-05-16T23:06:31.453Z,97334.91
2018-05-16T23:08:58.986Z,97336.08
2018-05-16T23:11:26.497Z,97332.67
2018-05-16T23:13:53.990Z,97327.27
2018-05-16T23:16:21.539Z,97323.92
2018-05-16T23:18:49.041Z,97316.84
2018-05-16T23:21:16.569Z,97319.87
2018-05-16T23:23:44.107Z,97323.23
2018-05-16T23:26:11.610Z,97321.79
2018-05-16T23:28:39.097Z,97319.89
2018-05-16T23:31:06.629Z,97324.37
2018-05-16T23:33:34.149Z,97326.00
2018-05-16T23:36:01.645Z,97304.81
2018-05-16T23:38:29.190Z,97319.64
2018-05-16T23:40:56.787Z,97319.17
2018-05-16T23:43:24.301Z,97326.13
2018-05-16T23:45:51.826Z,97321.28
2018-05-16T23:48:19.999Z,97328.94
2018-05-16T23:50:47.570Z,97321.82
2018-05-16T23:53:15.053Z,97320.19
2018-05-16T23:55:42.586Z,97327.23
2018-05-16T23:58:10.093Z,97329.44
